Time;durP1;ratioP1;P1;durP2;ratioP2;P2;SDS_P1;SDS_P2;PMS_P1;PMS_P2;Temp;Humidity;BMP_temperature;BMP_pressure;BME280_temperature;BME280_humidity;BME280_pressure;Samples;Min_cycle;Max_cycle;Signal;HPM_P1;HPM_P2
2022/07/09 00:00:15;;;;;;;;;;;10.70;99.90;;;;;;5125460;27;19911;-53
2022/07/09 00:02:58;;;;;;;;;;;10.60;99.90;;;;;;5125826;27;19911;-53
2022/07/09 00:05:38;;;;;;;;;;;10.50;99.90;;;;;;5105569;27;19945;-53
2022/07/09 00:08:18;;;;;;;;;;;10.50;99.90;;;;;;5125586;27;19915;-53
2022/07/09 00:10:58;;;;;;;;;;;10.60;99.90;;;;;;5125358;27;19969;-54
2022/07/09 00:13:38;;;;;;;;;;;10.50;99.90;;;;;;5126257;27;20320;-55
2022/07/09 00:16:18;;;;;;;;;;;10.40;99.90;;;;;;5125991;27;19918;-54
2022/07/09 00:18:58;;;;;;;;;;;10.40;99.90;;;;;;5126076;27;19918;-56
2022/07/09 00:21:37;;;;;;;;;;;10.30;99.90;;;;;;5119438;27;19915;-54
2022/07/09 00:24:17;;;;;;;;;;;10.20;99.90;;;;;;5126344;27;20115;-54
2022/07/09 00:26:57;;;;;;;;;;;10.20;99.90;;;;;;5105324;27;20362;-53
2022/07/09 00:29:37;;;;;;;;;;;10.20;99.90;;;;;;5105207;27;19927;-55
2022/07/09 00:32:18;;;;;;;;;;;10.20;99.90;;;;;;5113747;27;19912;-54
2022/07/09 00:34:58;;;;;;;;;;;10.20;99.90;;;;;;5105275;27;20418;-54
2022/07/09 00:37:38;;;;;;;;;;;10.20;99.90;;;;;;5125734;27;19912;-56
2022/07/09 00:40:18;;;;;;;;;;;10.20;99.90;;;;;;5125788;27;19912;-53
2022/07/09 00:42:58;;;;;;;;;;;10.10;99.90;;;;;;5105364;27;19953;-54
2022/07/09 00:45:37;;;;;;;;;;;9.90;99.90;;;;;;5125903;27;19912;-54
2022/07/09 00:48:19;;;;;;;;;;;9.90;99.90;;;;;;5126475;27;19912;-55
2022/07/09 00:50:59;;;;;;;;;;;9.90;99.90;;;;;;5124662;27;19911;-56
2022/07/09 00:53:51;;;;;;;;;;;9.80;99.90;;;;;;5105387;27;20133;-55
2022/07/09 00:56:30;;;;;;;;;;;9.70;99.90;;;;;;5125791;27;20173;-53
2022/07/09 00:59:12;;;;;;;;;;;9.70;99.90;;;;;;5105155;27;20323;-55
2022/07/09 01:01:53;;;;;;;;;;;9.70;99.90;;;;;;5125175;27;19912;-55
2022/07/09 01:04:33;;;;;;;;;;;9.70;99.90;;;;;;5125925;27;20270;-55
2022/07/09 01:07:13;;;;;;;;;;;9.60;99.90;;;;;;5105135;27;19912;-55
2022/07/09 01:09:53;;;;;;;;;;;9.50;99.90;;;;;;5126037;27;20107;-55
2022/07/09 01:12:33;;;;;;;;;;;9.60;99.90;;;;;;5126281;27;19911;-54
2022/07/09 01:15:12;;;;;;;;;;;9.60;99.90;;;;;;5125974;27;19922;-53
2022/07/09 01:17:52;;;;;;;;;;;9.60;99.90;;;;;;5126401;27;20296;-54
2022/07/09 01:20:32;;;;;;;;;;;9.50;99.90;;;;;;5125826;27;19911;-54
2022/07/09 01:23:12;;;;;;;;;;;9.50;99.90;;;;;;5126133;27;19912;-56
2022/07/09 01:25:51;;;;;;;;;;;9.50;99.90;;;;;;5125685;27;19915;-55
2022/07/09 01:28:31;;;;;;;;;;;9.70;99.90;;;;;;5105609;27;19919;-56
2022/07/09 01:31:11;;;;;;;;;;;9.60;99.90;;;;;;5122295;27;19954;-54
2022/07/09 01:33:51;;;;;;;;;;;9.60;99.90;;;;;;5105728;27;20202;-53
2022/07/09 01:36:31;;;;;;;;;;;9.60;99.90;;;;;;5125630;27;19918;-54
2022/07/09 01:39:11;;;;;;;;;;;9.60;99.90;;;;;;5126100;27;19926;-55
2022/07/09 01:41:50;;;;;;;;;;;9.60;99.90;;;;;;5126451;27;19915;-54
2022/07/09 01:44:30;;;;;;;;;;;9.50;99.90;;;;;;5098379;27;20393;-54
2022/07/09 01:47:10;;;;;;;;;;;9.50;99.90;;;;;;5104034;27;19946;-55
2022/07/09 01:49:50;;;;;;;;;;;9.40;99.90;;;;;;5125684;27;19912;-55
2022/07/09 01:52:31;;;;;;;;;;;9.30;99.90;;;;;;5105823;27;19926;-54
2022/07/09 01:55:11;;;;;;;;;;;9.30;99.90;;;;;;5125586;27;20327;-54
2022/07/09 01:57:51;;;;;;;;;;;9.30;99.90;;;;;;5125776;27;19912;-54
2022/07/09 02:00:31;;;;;;;;;;;9.20;99.90;;;;;;5125656;27;20395;-54
2022/07/09 02:03:11;;;;;;;;;;;9.10;99.90;;;;;;5125352;27;19912;-54
2022/07/09 02:05:50;;;;;;;;;;;9.10;99.90;;;;;;5125830;27;19912;-56
2022/07/09 02:08:30;;;;;;;;;;;9.00;99.90;;;;;;5105864;27;20405;-54
2022/07/09 02:11:10;;;;;;;;;;;9.10;99.90;;;;;;5122970;27;19912;-53
2022/07/09 02:13:50;;;;;;;;;;;9.10;99.90;;;;;;5110976;27;19926;-53
2022/07/09 02:16:30;;;;;;;;;;;9.10;99.90;;;;;;5113400;27;19912;-53
2022/07/09 02:19:10;;;;;;;;;;;9.00;99.90;;;;;;5125591;27;19916;-53
2022/07/09 02:21:49;;;;;;;;;;;9.00;99.90;;;;;;5125596;27;19918;-56
2022/07/09 02:24:29;;;;;;;;;;;9.00;99.90;;;;;;5105404;27;20290;-55
2022/07/09 02:27:09;;;;;;;;;;;8.90;99.90;;;;;;5105113;27;20439;-56
2022/07/09 02:29:49;;;;;;;;;;;8.80;99.90;;;;;;5105929;27;19912;-54
2022/07/09 02:32:29;;;;;;;;;;;8.90;99.90;;;;;;5126108;27;19916;-54
2022/07/09 02:35:09;;;;;;;;;;;9.00;99.90;;;;;;5104941;27;19970;-53
2022/07/09 02:37:50;;;;;;;;;;;9.10;99.90;;;;;;5125747;27;19912;-56
2022/07/09 02:40:30;;;;;;;;;;;9.20;99.90;;;;;;5105392;27;19916;-55
2022/07/09 02:43:10;;;;;;;;;;;9.20;99.90;;;;;;5126479;27;20028;-56
2022/07/09 02:45:51;;;;;;;;;;;9.10;99.90;;;;;;5133065;27;19919;-55
2022/07/09 02:48:31;;;;;;;;;;;9.00;99.90;;;;;;5125985;27;19912;-55
2022/07/09 02:51:11;;;;;;;;;;;8.80;99.90;;;;;;5122590;27;19912;-55
2022/07/09 02:53:51;;;;;;;;;;;8.80;99.90;;;;;;5125963;27;19912;-56
2022/07/09 02:56:30;;;;;;;;;;;8.70;99.90;;;;;;5104865;27;19938;-55
2022/07/09 02:59:10;;;;;;;;;;;8.80;99.90;;;;;;5125783;27;19911;-56
2022/07/09 03:01:50;;;;;;;;;;;8.90;99.90;;;;;;5125604;27;19927;-56
2022/07/09 03:04:30;;;;;;;;;;;8.90;99.90;;;;;;5126099;27;19959;-55
2022/07/09 03:07:10;;;;;;;;;;;8.90;99.90;;;;;;5125848;27;19916;-55
2022/07/09 03:09:50;;;;;;;;;;;8.80;99.90;;;;;;5126435;27;19911;-56
2022/07/09 03:12:29;;;;;;;;;;;8.80;99.90;;;;;;5146598;27;19915;-55
2022/07/09 03:15:13;;;;;;;;;;;8.80;99.90;;;;;;5125561;27;20335;-55
2022/07/09 03:17:52;;;;;;;;;;;8.80;99.90;;;;;;5125436;27;19918;-57
2022/07/09 03:20:32;;;;;;;;;;;8.80;99.90;;;;;;5105219;27;19912;-55
2022/07/09 03:23:13;;;;;;;;;;;8.80;99.90;;;;;;5105275;27;19942;-55
2022/07/09 03:25:53;;;;;;;;;;;8.80;99.90;;;;;;5104923;27;19912;-55
2022/07/09 03:28:34;;;;;;;;;;;8.90;99.90;;;;;;5085229;28;19938;-55
2022/07/09 03:31:15;;;;;;;;;;;8.90;99.90;;;;;;5125476;27;19912;-55
2022/07/09 03:33:54;;;;;;;;;;;8.90;99.90;;;;;;5126158;27;20389;-55
2022/07/09 03:36:34;;;;;;;;;;;9.00;99.90;;;;;;5125562;27;19912;-55
2022/07/09 03:39:14;;;;;;;;;;;9.00;99.90;;;;;;5125441;27;19912;-57
2022/07/09 03:41:54;;;;;;;;;;;9.00;99.90;;;;;;5125921;27;19918;-55
2022/07/09 03:44:34;;;;;;;;;;;9.00;99.90;;;;;;5122435;27;19961;-56
2022/07/09 03:47:14;;;;;;;;;;;9.10;99.90;;;;;;5104808;27;20351;-55
2022/07/09 03:49:53;;;;;;;;;;;9.30;99.90;;;;;;5125835;27;19916;-57
2022/07/09 03:52:33;;;;;;;;;;;9.40;99.90;;;;;;5105415;27;19912;-56
2022/07/09 03:55:13;;;;;;;;;;;9.60;99.90;;;;;;5103687;27;19945;-55
2022/07/09 03:57:53;;;;;;;;;;;9.80;99.90;;;;;;5105460;27;19962;-55
2022/07/09 04:00:33;;;;;;;;;;;10.00;99.90;;;;;;5125746;27;20391;-55
2022/07/09 04:03:12;;;;;;;;;;;10.20;99.90;;;;;;5104806;27;19912;-55
2022/07/09 04:05:52;;;;;;;;;;;10.30;99.90;;;;;;5126002;27;19918;-57
2022/07/09 04:08:32;;;;;;;;;;;10.50;99.90;;;;;;5105773;27;19919;-55
2022/07/09 04:11:12;;;;;;;;;;;10.60;99.90;;;;;;5122733;27;19912;-55
2022/07/09 04:13:52;;;;;;;;;;;10.70;99.90;;;;;;5125943;27;19918;-55
2022/07/09 04:16:32;;;;;;;;;;;10.80;99.90;;;;;;5125414;27;20425;-55
2022/07/09 04:19:11;;;;;;;;;;;10.90;99.90;;;;;;5126008;27;19911;-55
2022/07/09 04:21:51;;;;;;;;;;;11.20;99.90;;;;;;5117310;27;19912;-54
2022/07/09 04:24:31;;;;;;;;;;;11.90;99.90;;;;;;5126352;27;19916;-55
2022/07/09 04:27:11;;;;;;;;;;;13.00;99.90;;;;;;5105102;27;19970;-55
2022/07/09 04:29:51;;;;;;;;;;;14.10;99.90;;;;;;5105396;27;19912;-55
2022/07/09 04:32:31;;;;;;;;;;;14.90;99.90;;;;;;5105349;27;20336;-55
2022/07/09 04:35:10;;;;;;;;;;;15.60;99.90;;;;;;5105171;27;19918;-55
2022/07/09 04:37:52;;;;;;;;;;;16.10;99.90;;;;;;5126055;27;20301;-54
2022/07/09 04:40:33;;;;;;;;;;;16.70;99.90;;;;;;5126263;27;19925;-55
2022/07/09 04:43:13;;;;;;;;;;;17.20;99.90;;;;;;5105507;27;19953;-54
2022/07/09 04:45:53;;;;;;;;;;;17.60;99.90;;;;;;5125605;27;19915;-54
2022/07/09 04:48:33;;;;;;;;;;;17.70;99.90;;;;;;5105340;27;19916;-55
2022/07/09 04:51:13;;;;;;;;;;;17.90;99.90;;;;;;5122549;27;19912;-54
2022/07/09 04:53:52;;;;;;;;;;;18.40;99.90;;;;;;5125606;27;19912;-55
2022/07/09 04:56:32;;;;;;;;;;;18.70;99.90;;;;;;5092377;27;19946;-55
2022/07/09 04:59:12;;;;;;;;;;;18.80;99.90;;;;;;5126004;27;19918;-55
2022/07/09 05:01:52;;;;;;;;;;;18.50;99.90;;;;;;5104463;27;20304;-54
2022/07/09 05:04:32;;;;;;;;;;;18.30;99.90;;;;;;5126013;27;19912;-55
2022/07/09 05:07:12;;;;;;;;;;;17.70;99.90;;;;;;5125482;27;19911;-54
2022/07/09 05:09:51;;;;;;;;;;;17.40;99.90;;;;;;5106192;27;20124;-54
2022/07/09 05:12:31;;;;;;;;;;;17.80;99.90;;;;;;5126144;27;19926;-55
2022/07/09 05:15:11;;;;;;;;;;;18.10;99.90;;;;;;5105799;27;20438;-55
2022/07/09 05:17:52;;;;;;;;;;;18.30;99.90;;;;;;5122646;27;19915;-55
2022/07/09 05:20:32;;;;;;;;;;;18.50;99.90;;;;;;5122802;27;19915;-55
2022/07/09 05:23:12;;;;;;;;;;;18.40;99.90;;;;;;5126680;27;19912;-54
2022/07/09 05:25:53;;;;;;;;;;;18.20;99.90;;;;;;5127875;27;20300;-55
2022/07/09 05:28:33;;;;;;;;;;;18.20;99.90;;;;;;5126422;27;19912;-55
2022/07/09 05:31:13;;;;;;;;;;;17.70;99.90;;;;;;5104996;27;19916;-54
2022/07/09 05:33:53;;;;;;;;;;;17.60;99.90;;;;;;5105645;27;20443;-55
2022/07/09 05:36:33;;;;;;;;;;;18.30;99.90;;;;;;5125542;27;20291;-55
2022/07/09 05:39:13;;;;;;;;;;;19.10;99.90;;;;;;5125708;27;19926;-54
2022/07/09 05:41:52;;;;;;;;;;;19.90;99.90;;;;;;5126399;27;19922;-55
2022/07/09 05:44:32;;;;;;;;;;;19.80;99.90;;;;;;5126279;27;19918;-55
2022/07/09 05:47:12;;;;;;;;;;;19.50;99.90;;;;;;5125889;27;19911;-55
2022/07/09 05:49:52;;;;;;;;;;;19.20;99.90;;;;;;5126287;27;19911;-56
2022/07/09 05:52:32;;;;;;;;;;;18.80;99.90;;;;;;5126247;27;19938;-56
2022/07/09 05:55:12;;;;;;;;;;;18.90;99.90;;;;;;5126122;27;19926;-55
2022/07/09 05:57:51;;;;;;;;;;;19.40;99.90;;;;;;5125512;27;19922;-54
2022/07/09 06:00:32;;;;;;;;;;;19.80;99.90;;;;;;5085270;28;20302;-55
2022/07/09 06:03:11;;;;;;;;;;;20.10;99.90;;;;;;5124913;27;20519;-54
2022/07/09 06:05:51;;;;;;;;;;;20.10;99.90;;;;;;5125811;27;19912;-53
2022/07/09 06:08:31;;;;;;;;;;;19.70;99.90;;;;;;5125899;27;19915;-52
2022/07/09 06:11:12;;;;;;;;;;;19.40;99.90;;;;;;5125702;27;19915;-54
2022/07/09 06:13:52;;;;;;;;;;;18.90;99.90;;;;;;5095375;27;19916;-53
2022/07/09 06:16:32;;;;;;;;;;;18.70;99.90;;;;;;5105218;27;19912;-58
2022/07/09 06:19:12;;;;;;;;;;;18.40;99.90;;;;;;5105554;27;19961;-55
2022/07/09 06:21:53;;;;;;;;;;;18.20;99.90;;;;;;5105609;27;19926;-54
2022/07/09 06:24:33;;;;;;;;;;;18.00;99.90;;;;;;5157095;27;19918;-54
2022/07/09 06:27:13;;;;;;;;;;;17.80;99.90;;;;;;5105431;27;19953;-57
2022/07/09 06:29:53;;;;;;;;;;;17.50;99.90;;;;;;5126006;27;19927;-54
2022/07/09 06:32:32;;;;;;;;;;;17.30;99.90;;;;;;5126016;27;19953;-56
2022/07/09 06:35:12;;;;;;;;;;;17.00;99.90;;;;;;5165443;27;20364;-56
2022/07/09 06:37:52;;;;;;;;;;;16.70;99.90;;;;;;5105263;27;19926;-54
2022/07/09 06:40:32;;;;;;;;;;;16.60;99.90;;;;;;5105806;27;20566;-52
2022/07/09 06:43:13;;;;;;;;;;;16.50;99.90;;;;;;5105562;27;19913;-54
2022/07/09 06:46:00;;;;;;;;;;;16.50;99.90;;;;;;5105572;27;19920;-57
2022/07/09 06:48:41;;;;;;;;;;;16.50;99.90;;;;;;5126480;27;19916;-52
2022/07/09 06:51:22;;;;;;;;;;;16.30;99.90;;;;;;5121331;27;19920;-57
2022/07/09 06:54:02;;;;;;;;;;;16.10;99.90;;;;;;5126174;27;20323;-55
2022/07/09 06:56:42;;;;;;;;;;;15.90;99.90;;;;;;5105526;27;19927;-56
2022/07/09 06:59:22;;;;;;;;;;;15.90;99.90;;;;;;5105930;27;19920;-52
2022/07/09 07:02:02;;;;;;;;;;;16.20;99.90;;;;;;5105172;27;19924;-52
2022/07/09 07:04:42;;;;;;;;;;;16.60;99.90;;;;;;5126483;27;19912;-53
2022/07/09 07:07:21;;;;;;;;;;;17.20;99.90;;;;;;5125901;27;19912;-54
2022/07/09 07:10:01;;;;;;;;;;;17.80;99.90;;;;;;5105784;27;20418;-55
2022/07/09 07:12:41;;;;;;;;;;;18.50;99.90;;;;;;5109530;27;19916;-53
2022/07/09 07:15:21;;;;;;;;;;;18.70;99.90;;;;;;5084683;28;19917;-54
2022/07/09 07:18:01;;;;;;;;;;;18.70;99.90;;;;;;5125585;27;19912;-55
2022/07/09 07:20:40;;;;;;;;;;;18.80;99.90;;;;;;5105773;27;19916;-53
2022/07/09 07:23:20;;;;;;;;;;;18.80;99.90;;;;;;5065878;28;20328;-52
2022/07/09 07:26:00;;;;;;;;;;;18.90;99.90;;;;;;5160843;27;19911;-54
2022/07/09 07:28:40;;;;;;;;;;;19.10;99.90;;;;;;5126286;27;19911;-54
2022/07/09 07:31:20;;;;;;;;;;;19.20;99.90;;;;;;5102976;27;19946;-55
2022/07/09 07:34:00;;;;;;;;;;;19.40;99.90;;;;;;5126249;27;20338;-53
2022/07/09 07:36:41;;;;;;;;;;;19.60;99.90;;;;;;5125914;27;19911;-54
2022/07/09 07:39:21;;;;;;;;;;;19.70;99.90;;;;;;5125566;27;19912;-53
2022/07/09 07:42:01;;;;;;;;;;;20.10;99.90;;;;;;5116040;27;19918;-52
2022/07/09 07:44:41;;;;;;;;;;;20.80;99.90;;;;;;5126115;27;19911;-54
2022/07/09 07:47:20;;;;;;;;;;;20.90;99.90;;;;;;5126000;27;20373;-53
2022/07/09 07:50:00;;;;;;;;;;;21.00;99.90;;;;;;5125995;27;19918;-54
2022/07/09 07:52:40;;;;;;;;;;;20.60;99.90;;;;;;5105562;27;19912;-53
2022/07/09 07:55:20;;;;;;;;;;;20.10;99.90;;;;;;5126210;27;19926;-54
2022/07/09 07:58:00;;;;;;;;;;;19.80;99.90;;;;;;5125295;27;19912;-51
2022/07/09 08:00:40;;;;;;;;;;;19.80;99.90;;;;;;5126104;27;20250;-55
2022/07/09 08:03:19;;;;;;;;;;;19.90;99.90;;;;;;5125595;27;19911;-56
2022/07/09 08:05:59;;;;;;;;;;;20.10;99.90;;;;;;5125851;27;19912;-52
2022/07/09 08:08:39;;;;;;;;;;;20.20;99.90;;;;;;5126325;27;19912;-53
2022/07/09 08:11:19;;;;;;;;;;;20.20;99.90;;;;;;5105625;27;20221;-54
2022/07/09 08:13:59;;;;;;;;;;;20.00;99.90;;;;;;5126393;27;19918;-52
2022/07/09 08:16:39;;;;;;;;;;;20.30;99.90;;;;;;5105521;27;19926;-52
2022/07/09 08:19:18;;;;;;;;;;;20.80;99.90;;;;;;5126523;27;19912;-52
2022/07/09 08:21:58;;;;;;;;;;;21.60;99.90;;;;;;5106072;27;19945;-53
2022/07/09 08:24:38;;;;;;;;;;;22.10;99.90;;;;;;5126393;27;19911;-54
2022/07/09 08:27:18;;;;;;;;;;;22.90;99.90;;;;;;5125822;27;19912;-57
2022/07/09 08:29:58;;;;;;;;;;;23.70;99.90;;;;;;5125978;27;20555;-54
2022/07/09 08:32:41;;;;;;;;;;;24.10;99.90;;;;;;5126019;27;20270;-51
2022/07/09 08:35:20;;;;;;;;;;;23.80;99.90;;;;;;5166520;27;19911;-59
2022/07/09 08:38:00;;;;;;;;;;;23.70;99.90;;;;;;5125849;27;19911;-55
2022/07/09 08:40:40;;;;;;;;;;;23.80;99.90;;;;;;5126180;27;19912;-56
2022/07/09 08:43:20;;;;;;;;;;;23.80;99.90;;;;;;5108874;22;20359;-55
2022/07/09 08:46:00;;;;;;;;;;;23.90;99.90;;;;;;5124154;27;19918;-56
2022/07/09 08:48:40;;;;;;;;;;;24.00;99.90;;;;;;5144812;27;19915;-58
2022/07/09 08:51:20;;;;;;;;;;;24.90;95.10;;;;;;5124329;27;19911;-56
2022/07/09 08:54:01;;;;;;;;;;;26.00;81.70;;;;;;5104128;27;20410;-54
2022/07/09 08:56:41;;;;;;;;;;;26.60;72.10;;;;;;5123940;27;20036;-58
2022/07/09 08:59:21;;;;;;;;;;;26.50;68.80;;;;;;5124519;27;20395;-56
2022/07/09 09:02:04;;;;;;;;;;;26.60;65.60;;;;;;5122634;27;19911;-56
2022/07/09 09:04:43;;;;;;;;;;;26.40;63.90;;;;;;5124737;27;19919;-56
2022/07/09 09:07:23;;;;;;;;;;;26.00;63.20;;;;;;5103417;27;19946;-57
2022/07/09 09:10:03;;;;;;;;;;;25.60;65.90;;;;;;5103743;27;19946;-55
2022/07/09 09:12:43;;;;;;;;;;;25.40;66.50;;;;;;5118946;27;19923;-56
2022/07/09 09:15:23;;;;;;;;;;;25.00;68.10;;;;;;5124627;27;20540;-57
2022/07/09 09:18:03;;;;;;;;;;;24.60;73.60;;;;;;5123597;27;19916;-57
2022/07/09 09:20:46;;;;;;;;;;;24.50;72.40;;;;;;5124173;27;19953;-57
2022/07/09 09:23:27;;;;;;;;;;;24.50;75.10;;;;;;5145361;27;19919;-56
2022/07/09 09:26:11;;;;;;;;;;;25.00;75.40;;;;;;5123733;27;19928;-56
2022/07/09 09:28:52;;;;;;;;;;;25.20;68.90;;;;;;5124379;27;19915;-57
2022/07/09 09:31:33;;;;;;;;;;;24.70;68.30;;;;;;5123854;27;19911;-57
2022/07/09 09:34:15;;;;;;;;;;;24.50;70.80;;;;;;5083590;28;19917;-56
2022/07/09 09:36:56;;;;;;;;;;;24.20;77.50;;;;;;5123830;27;19912;-57
2022/07/09 09:39:36;;;;;;;;;;;24.00;77.10;;;;;;5124737;27;20396;-56
2022/07/09 09:42:17;;;;;;;;;;;24.50;78.60;;;;;;5122161;27;19912;-53
2022/07/09 09:44:59;;;;;;;;;;;25.20;73.60;;;;;;5124748;27;19912;-59
2022/07/09 09:47:40;;;;;;;;;;;26.10;67.20;;;;;;5102612;27;20052;-56
2022/07/09 09:50:20;;;;;;;;;;;26.90;59.50;;;;;;5124030;27;20281;-56
2022/07/09 09:53:02;;;;;;;;;;;26.60;59.30;;;;;;5115539;27;19922;-56
2022/07/09 09:55:43;;;;;;;;;;;26.60;59.80;;;;;;5124438;27;20315;-56
2022/07/09 09:58:22;;;;;;;;;;;27.10;58.00;;;;;;5123739;27;19919;-55
2022/07/09 10:01:02;;;;;;;;;;;27.10;57.50;;;;;;5124465;27;19912;-55
2022/07/09 10:03:42;;;;;;;;;;;26.60;57.60;;;;;;5122769;27;19930;-57
2022/07/09 10:06:22;;;;;;;;;;;26.00;57.90;;;;;;5124179;27;19926;-56
2022/07/09 10:09:04;;;;;;;;;;;24.80;62.80;;;;;;5124827;27;20455;-54
2022/07/09 10:11:46;;;;;;;;;;;23.70;73.90;;;;;;5124287;27;20320;-56
2022/07/09 10:14:33;;;;;;;;;;;23.00;96.70;;;;;;5083643;28;19928;-56
2022/07/09 10:17:15;;;;;;;;;;;22.40;95.10;;;;;;5103299;27;19945;-55
2022/07/09 10:19:57;;;;;;;;;;;21.90;99.90;;;;;;5083600;28;19912;-56
2022/07/09 10:22:37;;;;;;;;;;;21.50;99.90;;;;;;5119427;27;19916;-55
2022/07/09 10:25:28;;;;;;;;;;;21.40;99.90;;;;;;5124175;27;19916;-55
2022/07/09 10:28:15;;;;;;;;;;;21.70;99.90;;;;;;5103892;27;19916;-55
2022/07/09 10:30:56;;;;;;;;;;;22.50;99.90;;;;;;5124560;27;19911;-56
2022/07/09 10:33:39;;;;;;;;;;;23.30;99.90;;;;;;5124642;27;19915;-55
2022/07/09 10:36:19;;;;;;;;;;;24.00;99.90;;;;;;5123793;27;19912;-55
2022/07/09 10:39:00;;;;;;;;;;;24.90;99.90;;;;;;5123551;27;19911;-55
2022/07/09 10:41:40;;;;;;;;;;;25.50;92.30;;;;;;5103946;27;19912;-56
2022/07/09 10:44:28;;;;;;;;;;;25.80;88.80;;;;;;5124538;27;19912;-56
2022/07/09 10:47:07;;;;;;;;;;;25.90;71.00;;;;;;5123491;27;19915;-55
2022/07/09 10:49:47;;;;;;;;;;;26.10;74.30;;;;;;5103960;27;20418;-55
2022/07/09 10:52:31;;;;;;;;;;;26.40;72.90;;;;;;5122846;27;19912;-55
2022/07/09 10:55:11;;;;;;;;;;;26.60;66.60;;;;;;5082579;28;19916;-56
2022/07/09 10:57:52;;;;;;;;;;;26.80;62.90;;;;;;5081889;28;19920;-56
2022/07/09 11:00:32;;;;;;;;;;;26.60;61.50;;;;;;5122611;27;19916;-56
2022/07/09 11:03:13;;;;;;;;;;;26.50;61.20;;;;;;5094069;27;19930;-55
2022/07/09 11:05:53;;;;;;;;;;;26.30;62.40;;;;;;5117849;27;20226;-55
2022/07/09 11:08:34;;;;;;;;;;;25.60;64.00;;;;;;5120901;27;19957;-55
2022/07/09 11:11:21;;;;;;;;;;;25.00;69.50;;;;;;5122182;27;19915;-55
2022/07/09 11:14:01;;;;;;;;;;;24.40;75.40;;;;;;5085413;27;19939;-55
2022/07/09 11:16:41;;;;;;;;;;;23.60;99.20;;;;;;5118726;27;19920;-55
2022/07/09 11:19:21;;;;;;;;;;;23.00;98.10;;;;;;5100270;27;19965;-55
2022/07/09 11:22:04;;;;;;;;;;;22.50;99.90;;;;;;5102220;27;20430;-55
2022/07/09 11:24:44;;;;;;;;;;;22.20;99.90;;;;;;5121647;27;19916;-55
2022/07/09 11:27:24;;;;;;;;;;;21.90;99.90;;;;;;5122899;27;19942;-54
2022/07/09 11:30:04;;;;;;;;;;;21.70;99.90;;;;;;5122863;27;19920;-55
2022/07/09 11:32:44;;;;;;;;;;;21.60;99.90;;;;;;5137925;27;20221;-55
2022/07/09 11:35:28;;;;;;;;;;;21.70;99.90;;;;;;5102410;27;19920;-57
2022/07/09 11:38:08;;;;;;;;;;;21.60;99.90;;;;;;5121213;27;19912;-55
2022/07/09 11:40:48;;;;;;;;;;;21.90;99.90;;;;;;5122758;27;20380;-55
2022/07/09 11:43:28;;;;;;;;;;;22.30;99.90;;;;;;5090590;27;19919;-55
2022/07/09 11:46:07;;;;;;;;;;;22.70;99.90;;;;;;5101826;27;19926;-56
2022/07/09 11:48:51;;;;;;;;;;;23.30;99.90;;;;;;5123372;27;19912;-56
2022/07/09 11:51:33;;;;;;;;;;;23.80;98.00;;;;;;5122444;27;20363;-55
2022/07/09 11:54:13;;;;;;;;;;;24.30;94.50;;;;;;5097366;27;19912;-55
2022/07/09 11:56:53;;;;;;;;;;;24.50;93.40;;;;;;5101603;27;19912;-55
2022/07/09 11:59:34;;;;;;;;;;;24.30;86.50;;;;;;5102714;27;20323;-55
2022/07/09 12:02:23;;;;;;;;;;;23.70;90.70;;;;;;5120928;27;19912;-55
2022/07/09 12:05:04;;;;;;;;;;;23.40;97.60;;;;;;5103021;27;19954;-55
2022/07/09 12:07:51;;;;;;;;;;;23.00;99.90;;;;;;5122025;27;20420;-54
2022/07/09 12:10:32;;;;;;;;;;;22.80;99.90;;;;;;5123130;27;19916;-55
2022/07/09 12:13:13;;;;;;;;;;;22.80;99.90;;;;;;5123495;27;19916;-55
2022/07/09 12:15:53;;;;;;;;;;;22.60;99.90;;;;;;5121667;27;19916;-56
2022/07/09 12:18:33;;;;;;;;;;;22.70;99.90;;;;;;5121951;27;19916;-55
2022/07/09 12:21:12;;;;;;;;;;;23.00;99.90;;;;;;5122829;27;19916;-56
2022/07/09 12:23:52;;;;;;;;;;;23.40;99.90;;;;;;5120675;27;19919;-55
2022/07/09 12:26:32;;;;;;;;;;;24.30;99.90;;;;;;5121177;27;19933;-56
2022/07/09 12:29:13;;;;;;;;;;;25.20;99.90;;;;;;5122290;27;19916;-55
2022/07/09 12:31:53;;;;;;;;;;;25.40;99.90;;;;;;5122879;27;19920;-56
2022/07/09 12:34:33;;;;;;;;;;;25.50;99.90;;;;;;5113968;27;19929;-56
2022/07/09 12:37:13;;;;;;;;;;;25.40;94.10;;;;;;5122057;27;19916;-55
2022/07/09 12:39:53;;;;;;;;;;;25.20;96.10;;;;;;5124305;27;19967;-55
2022/07/09 12:42:34;;;;;;;;;;;25.20;83.40;;;;;;5104671;27;20399;-55
2022/07/09 12:45:14;;;;;;;;;;;25.10;88.70;;;;;;5124535;27;20222;-55
2022/07/09 12:47:54;;;;;;;;;;;25.20;90.00;;;;;;5102350;27;19920;-55
2022/07/09 12:50:34;;;;;;;;;;;25.40;83.80;;;;;;5099931;27;19930;-55
2022/07/09 12:53:14;;;;;;;;;;;25.60;78.60;;;;;;5122924;27;20465;-55
2022/07/09 12:55:53;;;;;;;;;;;25.40;77.80;;;;;;5113992;27;19915;-56
2022/07/09 12:58:33;;;;;;;;;;;24.80;78.80;;;;;;5104684;27;19912;-55
2022/07/09 13:01:13;;;;;;;;;;;24.00;76.40;;;;;;5083836;28;19912;-55
2022/07/09 13:03:53;;;;;;;;;;;23.50;81.70;;;;;;5099620;28;20296;-55
2022/07/09 13:06:34;;;;;;;;;;;23.20;91.60;;;;;;5124195;27;19916;-55
2022/07/09 13:09:14;;;;;;;;;;;23.00;89.00;;;;;;5124940;27;19919;-55
2022/07/09 13:11:54;;;;;;;;;;;22.80;92.10;;;;;;5123970;27;19912;-55
2022/07/09 13:14:34;;;;;;;;;;;22.60;91.10;;;;;;5124991;27;20419;-55
2022/07/09 13:17:14;;;;;;;;;;;22.40;97.80;;;;;;5103095;27;19912;-55
2022/07/09 13:19:53;;;;;;;;;;;22.40;99.70;;;;;;5102818;27;19918;-55
2022/07/09 13:22:33;;;;;;;;;;;22.20;99.90;;;;;;5094662;27;19923;-55
2022/07/09 13:25:13;;;;;;;;;;;21.90;99.90;;;;;;5083326;28;19916;-56
2022/07/09 13:27:54;;;;;;;;;;;21.60;99.90;;;;;;5099412;27;20323;-55
2022/07/09 13:30:35;;;;;;;;;;;21.40;99.90;;;;;;5106086;27;19918;-55
2022/07/09 13:33:17;;;;;;;;;;;21.30;99.90;;;;;;5124539;27;19912;-56
2022/07/09 13:35:58;;;;;;;;;;;21.10;99.90;;;;;;5124301;27;19915;-55
2022/07/09 13:38:39;;;;;;;;;;;21.10;99.90;;;;;;5084005;28;19920;-55
2022/07/09 13:41:18;;;;;;;;;;;21.00;99.90;;;;;;5100765;27;19926;-56
2022/07/09 13:43:58;;;;;;;;;;;20.90;99.90;;;;;;5081575;27;19958;-54
2022/07/09 13:46:38;;;;;;;;;;;20.90;99.90;;;;;;5117712;27;19916;-56
2022/07/09 13:49:18;;;;;;;;;;;20.90;99.90;;;;;;5122513;27;19916;-56
2022/07/09 13:51:58;;;;;;;;;;;20.70;99.90;;;;;;5117909;27;20381;-55
2022/07/09 13:54:39;;;;;;;;;;;20.50;99.90;;;;;;5078827;28;20096;-55
2022/07/09 13:57:19;;;;;;;;;;;20.30;99.90;;;;;;5096939;27;19953;-56
2022/07/09 13:59:59;;;;;;;;;;;20.40;99.90;;;;;;5123042;27;20321;-55
2022/07/09 14:02:39;;;;;;;;;;;20.80;99.90;;;;;;5115577;27;19916;-56
2022/07/09 14:05:19;;;;;;;;;;;21.40;99.90;;;;;;5106336;27;19916;-56
2022/07/09 14:08:00;;;;;;;;;;;22.10;99.90;;;;;;5118530;27;19912;-55
2022/07/09 14:10:40;;;;;;;;;;;22.40;99.90;;;;;;5122022;27;19915;-55
2022/07/09 14:13:20;;;;;;;;;;;22.30;99.90;;;;;;5090129;27;19927;-56
2022/07/09 14:16:00;;;;;;;;;;;22.40;99.90;;;;;;5119084;27;20130;-55
2022/07/09 14:18:39;;;;;;;;;;;22.40;99.90;;;;;;5113737;27;19911;-56
2022/07/09 14:21:19;;;;;;;;;;;22.30;99.90;;;;;;5121187;27;19920;-56
2022/07/09 14:23:59;;;;;;;;;;;22.30;99.90;;;;;;5107618;27;20448;-55
2022/07/09 14:26:40;;;;;;;;;;;22.30;99.90;;;;;;5117037;27;20437;-56
2022/07/09 14:29:20;;;;;;;;;;;22.40;99.90;;;;;;5102060;27;19969;-56
2022/07/09 14:32:00;;;;;;;;;;;22.30;99.90;;;;;;5123398;27;20132;-55
2022/07/09 14:34:40;;;;;;;;;;;22.40;99.90;;;;;;5123700;27;20513;-56
2022/07/09 14:37:20;;;;;;;;;;;22.50;99.90;;;;;;5122675;27;19919;-55
2022/07/09 14:39:59;;;;;;;;;;;22.60;99.90;;;;;;5122887;27;19916;-56
2022/07/09 14:42:40;;;;;;;;;;;22.80;99.90;;;;;;5095433;27;19912;-54
2022/07/09 14:45:23;;;;;;;;;;;23.00;99.90;;;;;;5121305;27;19916;-55
2022/07/09 14:48:07;;;;;;;;;;;23.10;99.90;;;;;;5100588;27;19926;-56
2022/07/09 14:50:47;;;;;;;;;;;23.00;99.90;;;;;;5142702;27;20396;-56
2022/07/09 14:53:27;;;;;;;;;;;22.90;99.90;;;;;;5111986;27;19913;-56
2022/07/09 14:56:07;;;;;;;;;;;22.80;99.90;;;;;;5101397;27;19927;-55
2022/07/09 14:58:48;;;;;;;;;;;22.60;99.90;;;;;;5122046;27;19919;-55
2022/07/09 15:01:28;;;;;;;;;;;22.20;99.90;;;;;;5076593;27;19924;-56
2022/07/09 15:04:08;;;;;;;;;;;22.00;99.90;;;;;;5106828;27;19930;-56
2022/07/09 15:06:47;;;;;;;;;;;21.90;99.90;;;;;;5122839;27;19934;-55
2022/07/09 15:09:28;;;;;;;;;;;21.80;99.90;;;;;;5122904;27;20116;-55
2022/07/09 15:12:09;;;;;;;;;;;21.90;99.90;;;;;;5099966;27;19916;-55
2022/07/09 15:14:49;;;;;;;;;;;21.90;99.90;;;;;;5116694;27;19916;-55
2022/07/09 15:17:28;;;;;;;;;;;21.90;99.90;;;;;;5133291;27;19916;-55
2022/07/09 15:20:09;;;;;;;;;;;21.90;99.90;;;;;;5149001;27;19919;-55
2022/07/09 15:22:50;;;;;;;;;;;21.90;99.90;;;;;;5098969;27;19927;-55
2022/07/09 15:25:30;;;;;;;;;;;21.80;99.90;;;;;;5076088;27;19917;-55
2022/07/09 15:28:12;;;;;;;;;;;21.70;99.90;;;;;;5119904;27;20289;-55
2022/07/09 15:30:52;;;;;;;;;;;21.70;99.90;;;;;;5109025;27;19916;-55
2022/07/09 15:33:32;;;;;;;;;;;21.70;99.90;;;;;;5069242;28;19919;-55